Time;durP1;ratioP1;P1;durP2;ratioP2;P2;SDS_P1;SDS_P2;PMS_P1;PMS_P2;Temp;Humidity;BMP_temperature;BMP_pressure;BME280_temperature;BME280_humidity;BME280_pressure;Samples;Min_cycle;Max_cycle;Signal;HPM_P1;HPM_P2
2023/04/04 00:00:50;;;;;;;;;11.00;10.67;;;;;6.61;100.00;102062.69;4998521;28;45617;-81
2023/04/04 00:03:15;;;;;;;;;12.67;9.00;;;;;6.58;100.00;102069.28;4975473;28;46967;-82
2023/04/04 00:05:41;;;;;;;;;11.67;10.67;;;;;6.54;100.00;102059.69;4993613;28;45334;-80
2023/04/04 00:08:07;;;;;;;;;12.00;10.33;;;;;6.47;100.00;102055.88;4996061;28;45585;-80
2023/04/04 00:10:32;;;;;;;;;11.33;9.00;;;;;6.46;100.00;102065.88;5001770;28;45438;-81
2023/04/04 00:12:58;;;;;;;;;9.33;9.33;;;;;6.43;100.00;102062.63;5000408;28;45448;-81
2023/04/04 00:15:23;;;;;;;;;12.67;9.67;;;;;6.35;100.00;102057.91;5007137;28;45334;-80
2023/04/04 00:17:49;;;;;;;;;12.00;9.00;;;;;6.34;100.00;102067.09;4999497;28;45461;-80
2023/04/04 00:20:14;;;;;;;;;11.67;10.67;;;;;6.31;100.00;102056.47;5007695;28;45373;-81
2023/04/04 00:22:40;;;;;;;;;11.33;11.00;;;;;6.28;100.00;102063.09;4976887;28;47097;-80
2023/04/04 00:25:06;;;;;;;;;13.00;11.33;;;;;6.22;100.00;102065.56;4993035;28;45760;-80
2023/04/04 00:27:31;;;;;;;;;13.00;10.33;;;;;6.17;100.00;102057.81;4995980;28;45544;-81
2023/04/04 00:29:56;;;;;;;;;14.00;11.67;;;;;6.14;100.00;102063.56;5005313;28;46089;-79
2023/04/04 00:32:22;;;;;;;;;11.33;9.67;;;;;6.08;100.00;102055.97;4996466;28;45955;-79
2023/04/04 00:34:53;;;;;;;;;12.33;12.00;;;;;6.05;100.00;102059.84;4981869;28;49769;-80
2023/04/04 00:37:20;;;;;;;;;14.33;11.33;;;;;6.06;100.00;102063.44;5004845;28;45827;-81
2023/04/04 00:39:46;;;;;;;;;11.00;11.00;;;;;5.97;100.00;102063.31;5005625;28;45941;-83
2023/04/04 00:42:12;;;;;;;;;11.33;11.33;;;;;5.94;100.00;102059.97;5012077;28;45891;-83
2023/04/04 00:44:37;;;;;;;;;11.33;8.67;;;;;5.79;100.00;102041.38;4985425;28;45649;-84
2023/04/04 00:47:03;;;;;;;;;11.00;9.33;;;;;5.81;100.00;102042.09;4994288;28;45499;-84
2023/04/04 00:49:29;;;;;;;;;13.33;10.67;;;;;5.91;100.00;102063.00;4993726;28;45543;-82
2023/04/04 00:51:55;;;;;;;;;11.67;10.67;;;;;5.81;100.00;102052.97;4988753;28;48367;-82
2023/04/04 00:54:21;;;;;;;;;9.00;9.00;;;;;5.87;100.00;102058.84;4984044;28;45434;-85
2023/04/04 00:56:46;;;;;;;;;7.67;6.00;;;;;5.86;100.00;102059.88;4991419;28;45650;-82
2023/04/04 00:59:13;;;;;;;;;11.33;10.33;;;;;5.81;100.00;102049.41;4992588;28;45912;-84
2023/04/04 01:01:38;;;;;;;;;12.33;9.33;;;;;5.86;100.00;102057.13;4998007;28;46409;-83
2023/04/04 01:04:04;;;;;;;;;10.00;8.00;;;;;5.82;100.00;102053.81;5005684;28;45447;-84
2023/04/04 01:06:31;;;;;;;;;13.00;10.00;;;;;5.80;100.00;102050.41;4997642;28;45687;-81
2023/04/04 01:08:57;;;;;;;;;7.33;7.33;;;;;5.78;100.00;102045.09;4998035;28;45802;-81
2023/04/04 01:11:24;;;;;;;;;7.33;7.33;;;;;5.75;100.00;102050.84;4990285;28;45769;-81
2023/04/04 01:13:50;;;;;;;;;10.00;7.33;;;;;5.70;100.00;102038.66;4994587;28;45705;-83
2023/04/04 01:16:16;;;;;;;;;8.00;8.00;;;;;5.69;100.00;102051.44;4977225;28;45347;-82
2023/04/04 01:18:43;;;;;;;;;7.67;5.33;;;;;5.68;100.00;102051.56;4996070;28;45482;-81
2023/04/04 01:21:12;;;;;;;;;8.33;8.33;;;;;5.65;100.00;102050.84;4998536;28;45502;-81
2023/04/04 01:24:00;;;;;;;;;8.00;8.00;;;;;5.62;100.00;102042.97;4984854;28;45296;-82
2023/04/04 01:26:26;;;;;;;;;10.00;9.00;;;;;5.58;100.00;102044.25;4998447;28;45738;-82
2023/04/04 01:28:57;;;;;;;;;6.33;6.33;;;;;5.52;100.00;102046.69;4974470;28;45723;-79
2023/04/04 01:31:30;;;;;;;;;11.33;9.00;;;;;5.56;100.00;102059.88;4991620;28;46636;-82
2023/04/04 01:34:28;;;;;;;;;8.67;6.33;;;;;5.52;100.00;102063.03;4980414;28;45952;-81
2023/04/04 01:37:11;;;;;;;;;11.00;9.00;;;;;5.50;100.00;102046.00;4997053;28;45270;-82
2023/04/04 01:39:46;;;;;;;;;11.00;7.33;;;;;5.45;100.00;102060.88;5001994;28;45610;-81
2023/04/04 01:42:14;;;;;;;;;17.50;16.25;;;;;5.38;100.00;102051.56;4987984;28;47748;-82
2023/04/04 01:44:40;;;;;;;;;16.33;13.00;;;;;5.34;100.00;102047.41;4969910;28;45726;-82
2023/04/04 01:47:08;;;;;;;;;8.33;8.33;;;;;5.41;100.00;102069.47;4993017;28;45650;-82
2023/04/04 01:49:34;;;;;;;;;11.33;8.33;;;;;5.39;100.00;102068.72;4992655;28;45444;-80
2023/04/04 01:52:01;;;;;;;;;17.00;14.50;;;;;5.37;100.00;102068.88;4991024;28;46503;-81
2023/04/04 01:54:27;;;;;;;;;17.50;13.00;;;;;5.35;100.00;102068.16;4994773;28;45786;-81
2023/04/04 01:56:52;;;;;;;;;15.25;10.75;;;;;5.31;100.00;102064.00;4986303;28;45626;-79
2023/04/04 01:59:18;;;;;;;;;15.00;11.00;;;;;5.32;100.00;102065.75;4993881;28;45561;-80
2023/04/04 02:01:44;;;;;;;;;14.33;13.00;;;;;5.30;100.00;102068.59;4989789;28;45472;-81
2023/04/04 02:04:11;;;;;;;;;14.33;10.67;;;;;5.28;100.00;102065.19;4989535;28;45624;-81
2023/04/04 02:06:37;;;;;;;;;12.00;9.00;;;;;5.22;100.00;102060.28;4977748;28;45512;-81
2023/04/04 02:09:03;;;;;;;;;14.00;12.00;;;;;5.24;100.00;102060.13;4981063;28;45749;-81
2023/04/04 02:11:28;;;;;;;;;16.33;12.00;;;;;5.16;100.00;102054.56;4990236;28;45908;-82
2023/04/04 02:13:53;;;;;;;;;11.00;10.50;;;;;5.17;100.00;102057.13;4992887;28;46080;-80
2023/04/04 02:16:19;;;;;;;;;11.00;10.33;;;;;5.16;100.00;102051.84;4998541;28;45878;-81
2023/04/04 02:18:44;;;;;;;;;13.00;10.33;;;;;5.01;100.00;102030.47;5002440;28;45499;-80
2023/04/04 02:21:10;;;;;;;;;12.00;12.00;;;;;5.10;100.00;102050.53;4998402;28;46058;-80
2023/04/04 02:23:35;;;;;;;;;11.33;10.00;;;;;5.06;100.00;102047.25;5004712;28;45712;-79
2023/04/04 02:26:01;;;;;;;;;11.25;11.00;;;;;5.04;100.00;102042.94;4999646;28;46003;-79
2023/04/04 02:28:30;;;;;;;;;11.00;9.00;;;;;4.97;100.00;102042.66;4992551;28;45550;-79
2023/04/04 02:31:01;;;;;;;;;12.33;8.00;;;;;4.98;100.00;102047.06;4998212;28;46328;-77
2023/04/04 02:33:26;;;;;;;;;11.33;10.00;;;;;4.96;100.00;102049.09;4998636;28;45922;-81
2023/04/04 02:35:52;;;;;;;;;6.67;6.67;;;;;4.91;100.00;102045.91;4997631;28;45478;-78
2023/04/04 02:38:17;;;;;;;;;9.33;8.33;;;;;4.89;100.00;102037.88;5002795;28;45561;-81
2023/04/04 02:40:44;;;;;;;;;8.33;8.33;;;;;4.83;100.00;102032.16;5001709;28;45996;-78
2023/04/04 02:43:10;;;;;;;;;5.00;5.00;;;;;4.83;100.00;102034.88;5003345;28;45462;-80
2023/04/04 02:45:35;;;;;;;;;10.67;7.67;;;;;4.75;100.00;102025.56;5017541;28;45419;-80
2023/04/04 02:48:02;;;;;;;;;11.00;8.67;;;;;4.75;100.00;102024.72;4996263;28;45697;-79
2023/04/04 02:50:28;;;;;;;;;8.67;7.67;;;;;4.73;100.00;102030.28;4993321;28;45412;-79
2023/04/04 02:52:58;;;;;;;;;8.67;8.33;;;;;4.73;100.00;102038.44;4996613;28;45683;-78
2023/04/04 02:55:24;;;;;;;;;10.33;7.67;;;;;4.65;100.00;102030.09;5003276;28;45659;-78
2023/04/04 02:57:51;;;;;;;;;9.33;8.33;;;;;4.57;100.00;102022.66;4983088;28;45738;-79
2023/04/04 03:00:17;;;;;;;;;9.75;9.75;;;;;4.60;100.00;102030.53;4990191;28;47232;-79
2023/04/04 03:02:42;;;;;;;;;7.33;7.00;;;;;4.61;100.00;102031.41;4995940;28;45677;-79
2023/04/04 03:05:08;;;;;;;;;8.67;8.67;;;;;4.56;100.00;102025.50;4994445;28;45462;-78
2023/04/04 03:07:33;;;;;;;;;11.75;9.00;;;;;4.55;100.00;102029.22;4994283;28;45609;-80
2023/04/04 03:09:58;;;;;;;;;12.00;8.00;;;;;4.41;100.00;102012.28;5000357;28;45404;-79
2023/04/04 03:12:24;;;;;;;;;13.00;9.50;;;;;4.48;100.00;102033.50;4998186;28;45678;-80
2023/04/04 03:14:49;;;;;;;;;7.25;7.25;;;;;4.44;100.00;102030.19;4996069;28;45765;-80
2023/04/04 03:17:16;;;;;;;;;10.00;9.00;;;;;4.36;100.00;102017.28;4997234;28;45686;-81
2023/04/04 03:19:42;;;;;;;;;10.00;8.50;;;;;4.36;100.00;102030.03;5003173;28;45843;-80
2023/04/04 03:22:07;;;;;;;;;12.75;10.00;;;;;4.32;100.00;102028.56;4999844;28;45941;-79
2023/04/04 03:24:34;;;;;;;;;14.75;9.00;;;;;4.28;100.00;102030.69;5008687;28;45762;-80
2023/04/04 03:27:02;;;;;;;;;9.33;9.00;;;;;4.24;100.00;102029.25;4970135;28;45969;-79
2023/04/04 03:29:27;;;;;;;;;8.75;7.75;;;;;4.23;100.00;102035.66;4995793;28;45484;-79
2023/04/04 03:31:52;;;;;;;;;14.67;8.33;;;;;4.09;100.00;102023.31;4995670;28;45606;-80
2023/04/04 03:34:18;;;;;;;;;8.75;8.75;;;;;4.20;100.00;102046.78;4995397;28;46125;-80
2023/04/04 03:36:45;;;;;;;;;7.75;7.75;;;;;4.19;100.00;102039.63;4986229;28;46809;-82
2023/04/04 03:39:11;;;;;;;;;10.50;9.75;;;;;4.16;100.00;102031.75;4999457;28;46059;-83
2023/04/04 03:41:36;;;;;;;;;12.75;10.25;;;;;4.15;100.00;102035.50;4984491;28;45484;-82
2023/04/04 03:44:03;;;;;;;;;10.50;10.25;;;;;4.02;100.00;102022.13;5011209;28;45372;-81
2023/04/04 03:46:29;;;;;;;;;14.00;10.25;;;;;3.98;100.00;102016.13;4997704;28;45745;-84
2023/04/04 03:48:55;;;;;;;;;9.00;9.00;;;;;4.06;100.00;102024.44;4994978;28;47043;-82
2023/04/04 03:51:24;;;;;;;;;11.25;9.75;;;;;4.05;100.00;102039.00;5005199;28;45661;-81
2023/04/04 03:53:50;;;;;;;;;13.00;9.25;;;;;4.04;100.00;102042.72;4982764;28;45682;-81
2023/04/04 03:56:15;;;;;;;;;11.25;9.50;;;;;3.92;100.00;102030.19;5001737;28;45657;-81
2023/04/04 03:58:41;;;;;;;;;10.50;9.75;;;;;3.97;100.00;102043.41;4995441;28;45802;-81
2023/04/04 04:01:06;;;;;;;;;34.75;26.50;;;;;3.97;100.00;102048.81;4994931;28;45443;-80
2023/04/04 04:03:32;;;;;;;;;8.50;8.25;;;;;3.98;100.00;102055.94;5003386;28;45829;-79
2023/04/04 04:05:58;;;;;;;;;8.75;8.75;;;;;3.96;100.00;102056.09;5006048;28;45738;-80
2023/04/04 04:08:24;;;;;;;;;5.50;4.25;;;;;3.97;100.00;102056.97;4986215;28;47221;-81
2023/04/04 04:10:50;;;;;;;;;10.00;9.00;;;;;3.91;100.00;102058.34;4982972;28;45893;-81
2023/04/04 04:13:15;;;;;;;;;12.00;8.75;;;;;3.91;100.00;102057.47;5006646;28;45550;-81
2023/04/04 04:15:41;;;;;;;;;7.00;7.00;;;;;3.78;100.00;102046.84;5002291;28;45407;-83
2023/04/04 04:18:06;;;;;;;;;7.75;7.00;;;;;3.86;100.00;102066.00;4997633;28;47926;-81
2023/04/04 04:20:31;;;;;;;;;22.00;13.25;;;;;3.89;100.00;102071.16;4995625;28;45462;-82
2023/04/04 04:22:57;;;;;;;;;13.25;10.75;;;;;3.85;100.00;102065.16;4994429;28;45821;-81
2023/04/04 04:25:22;;;;;;;;;9.50;7.00;;;;;3.84;100.00;102076.16;4996009;28;45774;-80
2023/04/04 04:27:48;;;;;;;;;9.33;8.67;;;;;3.77;100.00;102067.66;4999374;28;45524;-81
2023/04/04 04:30:13;;;;;;;;;13.00;8.00;;;;;3.79;100.00;102081.97;4998676;28;45683;-82
2023/04/04 04:32:39;;;;;;;;;7.33;6.33;;;;;3.76;100.00;102084.06;4999085;28;45385;-80
2023/04/04 04:35:05;;;;;;;;;9.00;8.75;;;;;3.76;100.00;102081.34;4972752;28;45667;-80
2023/04/04 04:37:30;;;;;;;;;10.25;9.50;;;;;3.72;100.00;102092.47;4991099;28;45788;-81
2023/04/04 04:39:56;;;;;;;;;7.00;7.00;;;;;3.71;100.00;102084.47;4984709;28;46030;-81
2023/04/04 04:42:21;;;;;;;;;11.25;9.75;;;;;3.66;100.00;102089.44;4995991;28;45433;-82
2023/04/04 04:44:47;;;;;;;;;12.00;9.00;;;;;3.59;100.00;102083.66;4984205;28;45835;-83
2023/04/04 04:47:13;;;;;;;;;8.75;8.25;;;;;3.59;100.00;102089.06;4988688;28;45854;-83
2023/04/04 04:49:41;;;;;;;;;10.00;6.50;;;;;3.51;100.00;102086.16;4983767;28;45732;-80
2023/04/04 04:52:06;;;;;;;;;13.33;10.00;;;;;3.50;100.00;102090.75;4997648;28;45518;-84
2023/04/04 04:54:31;;;;;;;;;12.00;9.50;;;;;3.33;100.00;102067.72;5004579;28;45394;-83
2023/04/04 04:56:59;;;;;;;;;12.25;10.00;;;;;3.44;100.00;102093.94;4998280;28;45722;-82
2023/04/04 04:59:24;;;;;;;;;12.50;7.50;;;;;3.32;100.00;102073.28;4999456;28;45716;-83
2023/04/04 05:01:50;;;;;;;;;10.00;9.50;;;;;3.22;100.00;102056.94;4997234;28;45772;-84
2023/04/04 05:04:16;;;;;;;;;13.50;10.00;;;;;3.29;100.00;102071.72;4990889;28;45822;-84
2023/04/04 05:06:42;;;;;;;;;15.50;11.75;;;;;3.31;100.00;102077.84;4995353;28;47101;-81
2023/04/04 05:09:07;;;;;;;;;13.00;10.00;;;;;3.33;100.00;102086.72;5000012;28;45452;-82
2023/04/04 05:11:32;;;;;;;;;24.50;19.00;;;;;3.23;100.00;102068.63;4982072;28;45256;-82
2023/04/04 05:13:58;;;;;;;;;8.25;8.25;;;;;3.27;100.00;102081.81;5000062;28;45744;-82
2023/04/04 05:16:24;;;;;;;;;12.00;7.50;;;;;3.23;100.00;102077.63;5001688;28;45864;-83
2023/04/04 05:18:49;;;;;;;;;7.75;7.75;;;;;3.27;100.00;102086.38;5000313;28;45759;-81
2023/04/04 05:21:15;;;;;;;;;10.75;9.25;;;;;3.23;100.00;102068.63;4994529;28;45871;-82
2023/04/04 05:23:40;;;;;;;;;9.50;9.50;;;;;3.22;100.00;102075.03;4994630;28;45579;-82
2023/04/04 05:26:06;;;;;;;;;14.00;8.00;;;;;3.24;100.00;102071.22;4998058;28;46000;-84
2023/04/04 05:28:31;;;;;;;;;9.25;8.50;;;;;3.22;100.00;102065.06;4999562;28;45383;-84
2023/04/04 05:30:57;;;;;;;;;9.50;9.50;;;;;3.33;100.00;102073.16;4999916;28;45352;-84
2023/04/04 05:33:22;;;;;;;;;6.00;6.00;;;;;3.40;100.00;102054.53;5012847;28;45458;-80
2023/04/04 05:35:48;;;;;;;;;6.00;5.00;;;;;3.45;100.00;102051.44;4974875;28;46062;-81
2023/04/04 05:38:13;;;;;;;;;11.00;8.00;;;;;3.53;100.00;102054.34;4986955;28;45795;-83
2023/04/04 05:40:41;;;;;;;;;9.75;7.75;;;;;3.91;100.00;102060.19;4994096;28;45718;-83
2023/04/04 05:43:08;;;;;;;;;9.00;7.50;;;;;4.37;100.00;102081.47;4980298;28;47161;-83
2023/04/04 05:45:33;;;;;;;;;9.25;8.00;;;;;4.60;100.00;102051.41;5003725;28;45942;-82
2023/04/04 05:47:59;;;;;;;;;8.00;7.00;;;;;5.24;100.00;102080.06;4993935;28;45478;-82
2023/04/04 05:50:24;;;;;;;;;5.67;4.00;;;;;5.70;100.00;102074.91;4998494;28;45485;-83
2023/04/04 05:52:55;;;;;;;;;11.33;8.67;;;;;6.27;100.00;102091.34;4995105;28;45423;-82
2023/04/04 05:55:24;;;;;;;;;14.33;12.33;;;;;6.70;100.00;102092.63;5000968;28;46008;-84
2023/04/04 05:57:50;;;;;;;;;9.00;9.00;;;;;7.13;100.00;102078.50;5001794;28;45921;-83
2023/04/04 06:00:17;;;;;;;;;12.67;8.67;;;;;7.45;100.00;102088.88;4985261;28;45448;-84
2023/04/04 06:02:43;;;;;;;;;13.00;8.67;;;;;7.68;99.40;102074.75;4999426;28;45711;-83
2023/04/04 06:05:09;;;;;;;;;14.67;9.00;;;;;8.11;97.89;102075.78;5001153;28;47749;-82
2023/04/04 06:07:34;;;;;;;;;7.00;5.00;;;;;8.74;96.26;102093.81;5006458;28;44881;-84
2023/04/04 06:10:00;;;;;;;;;13.00;11.33;;;;;9.08;93.75;102094.81;5000602;28;45425;-83
2023/04/04 06:12:26;;;;;;;;;9.00;7.00;;;;;9.47;91.49;102095.06;4993499;28;46970;-85
2023/04/04 06:14:51;;;;;;;;;11.33;9.00;;;;;9.78;90.01;102071.66;5001586;28;46033;-83
2023/04/04 06:17:17;;;;;;;;;7.33;7.00;;;;;10.18;87.42;102097.31;5000605;28;45588;-83
2023/04/04 06:19:42;;;;;;;;;11.67;7.67;;;;;10.63;86.18;102108.75;4998019;28;45959;-82
2023/04/04 06:22:08;;;;;;;;;10.33;10.33;;;;;11.01;84.17;102119.97;4996867;28;45515;-85
2023/04/04 06:24:34;;;;;;;;;9.00;6.33;;;;;11.24;83.03;102103.53;5000074;28;45558;-82
2023/04/04 06:26:59;;;;;;;;;8.00;6.00;;;;;11.86;81.13;102126.50;5010958;28;45248;-81
2023/04/04 06:29:25;;;;;;;;;8.67;7.00;;;;;11.88;78.01;102118.94;5006521;28;45416;-80
2023/04/04 06:31:50;;;;;;;;;12.00;10.33;;;;;11.96;76.90;102124.38;5005470;28;45259;-82
2023/04/04 06:34:16;;;;;;;;;7.00;6.00;;;;;12.07;75.13;102134.09;4984917;28;47003;-82
2023/04/04 06:36:41;;;;;;;;;11.33;8.00;;;;;12.28;74.86;102119.66;5003389;28;45468;-82
2023/04/04 06:39:07;;;;;;;;;7.33;7.33;;;;;12.74;73.02;102138.78;4999249;28;45491;-82
2023/04/04 06:41:32;;;;;;;;;11.00;9.00;;;;;12.96;71.81;102141.63;4994305;28;46494;-82
2023/04/04 06:43:57;;;;;;;;;10.00;9.00;;;;;13.23;69.52;102132.69;4992966;28;45996;-84
2023/04/04 06:46:26;;;;;;;;;10.00;10.00;;;;;13.52;69.13;102122.66;5011536;28;45617;-86
2023/04/04 06:48:51;;;;;;;;;11.33;9.00;;;;;13.69;67.84;102119.66;4992560;28;45537;-82
2023/04/04 06:51:17;;;;;;;;;6.00;6.00;;;;;14.03;66.49;102134.66;4995287;28;45913;-83
2023/04/04 06:53:42;;;;;;;;;12.33;9.67;;;;;14.33;65.55;102128.97;5015945;28;45291;-83
2023/04/04 06:56:08;;;;;;;;;10.00;8.67;;;;;14.76;63.89;102139.91;4997594;28;45590;-83
2023/04/04 06:58:33;;;;;;;;;3.67;3.00;;;;;14.87;61.92;102139.34;5006477;28;45459;-82
2023/04/04 07:01:01;;;;;;;;;9.33;8.33;;;;;14.81;60.38;102120.81;5010313;28;45593;-82
2023/04/04 07:03:26;;;;;;;;;11.00;9.33;;;;;14.97;60.08;102142.59;5013141;28;45295;-83
2023/04/04 07:05:52;;;;;;;;;7.33;7.00;;;;;15.12;60.08;102138.81;5013680;28;45867;-81
2023/04/04 07:08:17;;;;;;;;;5.00;4.00;;;;;15.30;59.16;102136.38;5016557;28;44790;-80
2023/04/04 07:10:43;;;;;;;;;12.00;7.00;;;;;15.82;57.57;102138.69;5003980;28;45819;-80
2023/04/04 07:13:09;;;;;;;;;6.33;6.33;;;;;16.07;57.32;102141.69;4985289;28;48120;-80
2023/04/04 07:15:34;;;;;;;;;7.33;5.33;;;;;15.88;54.85;102119.34;4984410;28;45511;-81
2023/04/04 07:18:00;;;;;;;;;6.33;6.33;;;;;15.87;54.16;102148.06;5000428;28;45377;-81
2023/04/04 07:20:27;;;;;;;;;9.67;7.00;;;;;16.27;54.39;102147.25;5009233;28;45526;-82
2023/04/04 07:22:52;;;;;;;;;9.67;7.67;;;;;16.44;53.01;102136.59;5005011;28;45798;-81
2023/04/04 07:25:18;;;;;;;;;9.00;6.67;;;;;16.33;51.97;102146.41;5006632;28;45740;-81
2023/04/04 07:27:43;;;;;;;;;5.67;5.67;;;;;15.67;51.42;102141.59;5011124;28;45804;-81
2023/04/04 07:30:10;;;;;;;;;4.00;3.00;;;;;15.30;52.54;102152.97;4996011;28;45865;-77
2023/04/04 07:32:37;;;;;;;;;4.00;4.00;;;;;15.65;52.46;102150.09;5001299;28;45469;-76
2023/04/04 07:35:04;;;;;;;;;9.00;5.67;;;;;15.70;51.70;102127.34;4999623;28;45400;-75
2023/04/04 07:37:29;;;;;;;;;6.00;6.00;;;;;16.09;51.10;102141.50;4992038;28;45698;-76
2023/04/04 07:39:54;;;;;;;;;4.33;4.33;;;;;16.24;51.04;102143.00;4991762;28;45881;-76
2023/04/04 07:42:22;;;;;;;;;8.00;7.33;;;;;15.19;50.58;102145.25;4994255;28;46459;-77
2023/04/04 07:44:53;;;;;;;;;6.33;5.00;;;;;14.05;51.93;102144.41;4976034;28;45583;-76
2023/04/04 07:47:20;;;;;;;;;5.33;5.33;;;;;12.83;53.92;102148.66;4993672;28;45464;-76
2023/04/04 07:49:46;;;;;;;;;11.00;7.00;;;;;11.62;54.92;102142.97;4993010;28;47044;-77
2023/04/04 07:52:11;;;;;;;;;10.00;7.00;;;;;10.90;56.82;102163.22;5006982;28;45964;-78
2023/04/04 07:54:36;;;;;;;;;5.00;5.00;;;;;10.40;59.00;102146.00;5005292;28;45874;-82
2023/04/04 07:57:04;;;;;;;;;4.67;4.00;;;;;10.02;59.98;102153.88;4999020;28;45377;-81
2023/04/04 07:59:31;;;;;;;;;7.00;7.00;;;;;9.57;60.65;102157.06;4996155;28;47507;-82
2023/04/04 08:01:59;;;;;;;;;8.00;7.33;;;;;9.10;61.74;102169.38;4999205;28;47402;-80
2023/04/04 08:04:24;;;;;;;;;6.33;6.33;;;;;8.63;63.61;102155.09;5005701;28;45465;-74
2023/04/04 08:06:50;;;;;;;;;12.00;7.67;;;;;8.21;65.68;102122.16;5004593;28;45764;-77
2023/04/04 08:09:16;;;;;;;;;7.00;7.00;;;;;8.05;65.81;102129.19;4998077;28;46706;-76
2023/04/04 08:11:41;;;;;;;;;7.33;7.00;;;;;7.97;66.46;102148.25;4997501;28;45770;-75
2023/04/04 08:14:10;;;;;;;;;6.67;6.67;;;;;7.84;67.09;102143.19;4994026;28;45535;-76
2023/04/04 08:16:37;;;;;;;;;7.33;5.33;;;;;7.71;67.57;102145.44;4996397;28;45706;-76
2023/04/04 08:19:03;;;;;;;;;8.00;8.00;;;;;7.54;68.28;102147.16;5003213;28;45801;-75
2023/04/04 08:21:28;;;;;;;;;9.00;6.67;;;;;7.43;68.65;102146.34;4991466;28;45779;-75
2023/04/04 08:23:54;;;;;;;;;7.00;7.00;;;;;7.32;69.58;102142.97;5000071;28;45703;-75
2023/04/04 08:26:20;;;;;;;;;8.33;7.00;;;;;7.28;69.66;102152.50;5005032;28;45514;-83
2023/04/04 08:28:46;;;;;;;;;10.33;6.67;;;;;7.17;69.96;102135.31;5009075;28;45796;-82
2023/04/04 08:31:12;;;;;;;;;7.67;6.33;;;;;7.12;70.33;102125.88;5005750;28;45379;-82
2023/04/04 08:33:37;;;;;;;;;10.67;7.00;;;;;7.21;71.23;102153.09;4998453;28;45524;-83
2023/04/04 08:36:03;;;;;;;;;9.33;6.00;;;;;7.17;71.76;102153.53;5002143;28;45400;-82
2023/04/04 08:38:29;;;;;;;;;7.00;7.00;;;;;7.20;71.06;102155.97;5000634;28;45862;-81
2023/04/04 08:40:55;;;;;;;;;14.67;10.67;;;;;7.08;70.65;102125.34;5011079;28;45736;-82
2023/04/04 08:43:23;;;;;;;;;6.00;6.00;;;;;7.26;71.10;102149.94;4994494;28;45902;-81
2023/04/04 08:45:52;;;;;;;;;13.67;12.00;;;;;7.29;70.96;102146.88;4994575;28;45746;-81
2023/04/04 08:48:19;;;;;;;;;11.00;9.33;;;;;7.27;71.10;102145.31;5004107;28;45793;-83
2023/04/04 08:50:45;;;;;;;;;9.67;6.00;;;;;7.38;70.66;102158.75;4992622;28;45841;-81
2023/04/04 08:53:13;;;;;;;;;8.67;8.00;;;;;7.40;70.56;102151.28;4992149;28;45806;-81
2023/04/04 08:55:39;;;;;;;;;5.00;5.00;;;;;7.33;70.00;102133.78;4995287;28;45675;-82
2023/04/04 08:58:04;;;;;;;;;9.33;8.00;;;;;7.66;70.41;102164.16;4995582;28;45415;-81
2023/04/04 09:00:31;;;;;;;;;4.33;4.33;;;;;8.87;69.50;102160.91;4994661;28;45728;-82
2023/04/04 09:03:06;;;;;;;;;8.67;5.33;;;;;10.55;67.09;102159.00;4993296;28;45393;-83
2023/04/04 09:05:32;;;;;;;;;12.00;10.67;;;;;12.42;63.26;102151.81;4995289;28;45933;-82
2023/04/04 09:08:05;;;;;;;;;7.00;5.33;;;;;14.00;60.22;102148.84;4998515;28;45188;-82
2023/04/04 09:10:31;;;;;;;;;10.33;7.67;;;;;15.29;55.59;102128.28;5011246;28;45906;-75
2023/04/04 09:12:58;;;;;;;;;9.00;8.00;;;;;16.26;52.74;102140.03;4998060;28;45709;-81
2023/04/04 09:15:24;;;;;;;;;9.67;7.67;;;;;17.18;51.26;102117.06;5011057;28;45387;-82
2023/04/04 09:17:49;;;;;;;;;7.00;7.00;;;;;18.41;48.54;102135.28;4990696;28;45860;-82
2023/04/04 09:20:39;;;;;;;;;5.00;4.00;;;;;19.17;46.54;102138.78;4986165;28;45512;-83
2023/04/04 09:23:10;;;;;;;;;8.00;6.67;;;;;19.72;42.65;102132.28;4990614;28;45973;-84
2023/04/04 09:25:36;;;;;;;;;8.67;8.67;;;;;20.25;41.20;102135.38;5007335;28;45431;-84
2023/04/04 09:28:04;;;;;;;;;7.67;5.67;;;;;20.43;40.47;102117.69;4995369;28;45457;-82
2023/04/04 09:30:34;;;;;;;;;8.67;8.67;;;;;20.79;40.23;102115.78;4975171;28;47091;-83
2023/04/04 09:33:04;;;;;;;;;6.00;5.67;;;;;21.36;39.22;102122.56;4994801;28;45629;-82
2023/04/04 09:35:36;;;;;;;;;4.33;4.33;;;;;21.29;36.18;102109.59;5002383;28;45531;-82
2023/04/04 09:38:03;;;;;;;;;7.00;6.33;;;;;20.80;35.08;102109.94;4992661;28;45538;-83
2023/04/04 09:40:31;;;;;;;;;8.33;7.33;;;;;20.84;36.10;102101.97;4993402;28;45801;-83
2023/04/04 09:43:01;;;;;;;;;9.00;5.67;;;;;21.08;35.67;102113.91;4996944;28;45488;-83
2023/04/04 09:45:29;;;;;;;;;5.33;5.33;;;;;21.63;35.24;102118.13;5006241;28;45666;-82
2023/04/04 09:47:55;;;;;;;;;4.00;4.00;;;;;22.88;35.63;102122.72;4997241;28;45483;-84
2023/04/04 09:50:23;;;;;;;;;3.00;3.00;;;;;22.97;33.40;102117.53;5000022;28;46444;-83
2023/04/04 09:52:49;;;;;;;;;5.00;4.00;;;;;22.03;32.46;102077.22;5001328;28;45463;-85
2023/04/04 09:55:16;;;;;;;;;3.00;3.00;;;;;21.72;32.50;102047.91;4975441;28;45947;-84
2023/04/04 09:57:42;;;;;;;;;4.67;4.67;;;;;22.33;32.39;102099.25;4997035;28;45689;-85
2023/04/04 10:00:08;;;;;;;;;4.67;4.67;;;;;21.84;31.36;102107.31;4994155;28;46739;-86
2023/04/04 10:02:36;;;;;;;;;4.33;4.33;;;;;21.32;31.39;102109.09;4997903;28;45740;-85
2023/04/04 10:05:10;;;;;;;;;5.33;5.33;;;;;21.41;31.83;102094.78;4999432;28;45420;-86
2023/04/04 10:07:39;;;;;;;;;4.33;4.00;;;;;21.69;31.31;102105.97;4995683;28;45619;-86
2023/04/04 10:10:06;;;;;;;;;7.33;4.33;;;;;20.95;31.42;102091.88;4981418;28;45588;-81
2023/04/04 10:12:31;;;;;;;;;5.33;4.33;;;;;20.71;31.85;102099.44;4991208;28;45899;-85
2023/04/04 10:14:58;;;;;;;;;3.33;3.33;;;;;20.99;31.55;102101.44;4994619;28;45213;-83
2023/04/04 10:17:30;;;;;;;;;5.67;5.67;;;;;21.40;31.95;102093.06;4997415;28;45749;-84
2023/04/04 10:20:00;;;;;;;;;4.33;4.00;;;;;21.54;31.67;102074.09;4997910;28;45987;-86
2023/04/04 10:22:26;;;;;;;;;4.33;4.00;;;;;22.13;31.30;102084.94;5010807;28;45812;-85
2023/04/04 10:24:52;;;;;;;;;4.00;4.00;;;;;22.04;29.94;102081.69;4986378;28;45528;-86
2023/04/04 10:27:19;;;;;;;;;7.00;5.00;;;;;21.78;30.88;102094.38;4988555;28;45846;-81
2023/04/04 10:29:45;;;;;;;;;5.67;3.67;;;;;21.86;31.10;102085.59;5002549;28;45758;-84
2023/04/04 10:32:23;;;;;;;;;4.33;4.00;;;;;21.93;30.90;102091.88;4999560;28;45884;-82
2023/04/04 10:35:09;;;;;;;;;5.00;5.00;;;;;22.07;30.69;102071.97;5002755;28;45510;-84
2023/04/04 10:37:42;;;;;;;;;4.67;4.33;;;;;21.92;30.50;102101.34;5001554;28;45939;-83
2023/04/04 10:40:12;;;;;;;;;6.33;5.00;;;;;22.14;30.43;102103.38;5006790;28;48007;-85
2023/04/04 10:42:42;;;;;;;;;4.00;4.00;;;;;21.82;30.47;102104.78;4995531;28;46496;-82
2023/04/04 10:45:09;;;;;;;;;3.67;3.33;;;;;21.02;30.42;102108.47;5006910;28;45410;-83
2023/04/04 10:47:36;;;;;;;;;6.00;5.00;;;;;20.25;31.05;102090.78;5011987;28;45749;-83
2023/04/04 10:50:06;;;;;;;;;7.00;6.33;;;;;20.26;31.11;102096.13;5002915;28;46206;-80
2023/04/04 10:52:33;;;;;;;;;4.00;2.00;;;;;19.81;30.90;102102.22;5006394;28;46428;-81
2023/04/04 10:55:06;;;;;;;;;6.00;4.00;;;;;19.21;31.36;102101.09;5012525;28;45499;-82
2023/04/04 10:57:35;;;;;;;;;5.00;2.00;;;;;18.93;32.22;102090.53;4988915;28;46248;-83
2023/04/04 11:00:09;;;;;;;;;5.00;5.00;;;;;18.43;32.60;102104.50;5009035;28;46805;-82
2023/04/04 11:02:53;;;;;;;;;4.00;4.00;;;;;18.40;32.47;102099.41;4999186;28;45329;-83
2023/04/04 11:05:21;;;;;;;;;4.67;4.00;;;;;17.96;33.36;102089.13;4992851;28;45763;-83
2023/04/04 11:07:48;;;;;;;;;4.00;4.00;;;;;17.41;34.29;102097.97;5002168;28;45520;-83
2023/04/04 11:10:25;;;;;;;;;7.00;5.00;;;;;16.84;34.35;102080.25;5004326;28;45846;-81
2023/04/04 11:12:54;;;;;;;;;5.00;4.00;;;;;16.24;35.42;102081.22;4985019;28;45807;-82
2023/04/04 11:15:25;;;;;;;;;10.00;6.33;;;;;15.82;35.46;102077.81;5011923;28;45360;-86
2023/04/04 11:17:59;;;;;;;;;6.67;4.00;;;;;15.40;34.86;102088.97;4984050;28;45484;-82
2023/04/04 11:20:38;;;;;;;;;6.67;4.33;;;;;14.70;35.46;102079.97;4985042;28;47772;-82